createdAt,value
2023-02-26T00:01:22.099Z,1.12
2023-02-26T00:03:49.036Z,0.82
2023-02-26T00:06:15.386Z,1.01
2023-02-26T00:08:41.731Z,1.00
2023-02-26T00:11:08.875Z,0.86
2023-02-26T00:13:39.229Z,1.21
2023-02-26T00:16:10.670Z,1.17
2023-02-26T00:18:37.192Z,1.11
2023-02-26T00:21:03.641Z,1.23
2023-02-26T00:23:30.000Z,1.24
2023-02-26T00:25:57.950Z,1.15
2023-02-26T00:28:24.411Z,0.89
2023-02-26T00:30:50.868Z,1.04
2023-02-26T00:33:17.285Z,1.14
2023-02-26T00:35:44.063Z,1.11
2023-02-26T00:38:11.151Z,1.20
2023-02-26T00:40:48.220Z,1.24
2023-02-26T00:43:16.026Z,0.98
2023-02-26T00:45:51.644Z,1.08
2023-02-26T00:48:26.940Z,0.97
2023-02-26T00:51:02.523Z,0.92
2023-02-26T00:53:31.695Z,0.93
2023-02-26T00:55:57.972Z,1.08
2023-02-26T00:58:24.292Z,1.08
2023-02-26T01:00:50.611Z,1.01
2023-02-26T01:03:17.029Z,1.04
2023-02-26T01:05:43.664Z,0.89
2023-02-26T01:08:36.378Z,0.98
2023-02-26T01:11:02.916Z,0.86
2023-02-26T01:13:29.318Z,0.97
2023-02-26T01:16:17.720Z,0.91
2023-02-26T01:18:56.282Z,0.94
2023-02-26T01:21:30.761Z,0.98
2023-02-26T01:23:57.196Z,1.06
2023-02-26T01:26:26.666Z,1.02
2023-02-26T01:28:53.575Z,0.81
2023-02-26T01:31:43.007Z,0.87
2023-02-26T01:34:18.297Z,0.94
2023-02-26T01:36:51.237Z,1.09
2023-02-26T01:39:26.778Z,1.23
2023-02-26T01:42:00.383Z,1.11
2023-02-26T01:44:26.643Z,1.07
2023-02-26T01:47:04.820Z,1.10
2023-02-26T01:49:31.562Z,1.09
2023-02-26T01:52:03.259Z,1.04
2023-02-26T01:54:31.431Z,1.03
2023-02-26T01:57:17.410Z,1.02
2023-02-26T01:59:46.392Z,0.88
2023-02-26T02:02:16.235Z,1.17
2023-02-26T02:04:43.893Z,1.16
2023-02-26T02:07:10.393Z,1.20
2023-02-26T02:09:36.736Z,0.98
2023-02-26T02:12:02.997Z,0.93
2023-02-26T02:14:46.344Z,1.18
2023-02-26T02:17:17.310Z,1.01
2023-02-26T02:19:43.737Z,1.11
2023-02-26T02:22:22.206Z,1.03
2023-02-26T02:25:06.520Z,1.04
2023-02-26T02:27:42.929Z,1.19
2023-02-26T02:30:27.752Z,1.16
2023-02-26T02:32:59.399Z,0.74
2023-02-26T02:35:35.726Z,0.97
2023-02-26T02:38:11.848Z,0.85
2023-02-26T02:40:41.022Z,0.97
2023-02-26T02:43:10.639Z,0.89
2023-02-26T02:45:59.816Z,0.79
2023-02-26T02:48:31.500Z,0.74
2023-02-26T02:51:00.190Z,0.87
2023-02-26T02:53:34.003Z,1.00
2023-02-26T02:56:07.178Z,1.11
2023-02-26T02:58:37.526Z,1.02
2023-02-26T03:01:06.505Z,1.26
2023-02-26T03:03:41.874Z,1.04
2023-02-26T03:06:08.398Z,1.18
2023-02-26T03:08:37.237Z,1.15
2023-02-26T03:11:03.709Z,0.89
2023-02-26T03:13:30.024Z,0.81
2023-02-26T03:15:59.080Z,0.88
2023-02-26T03:18:38.781Z,1.15
2023-02-26T03:21:10.026Z,1.08
2023-02-26T03:23:40.289Z,0.74
2023-02-26T03:26:19.311Z,0.81
2023-02-26T03:28:52.785Z,0.64
2023-02-26T03:31:35.579Z,0.84
2023-02-26T03:34:17.872Z,0.98
2023-02-26T03:36:49.555Z,0.96
2023-02-26T03:39:15.807Z,0.97
2023-02-26T03:41:47.967Z,1.01
2023-02-26T03:44:19.502Z,0.98
2023-02-26T03:46:48.435Z,0.71
2023-02-26T03:49:18.665Z,1.05
2023-02-26T03:51:46.062Z,1.23
2023-02-26T03:54:28.608Z,1.22
2023-02-26T03:56:54.991Z,1.14
2023-02-26T03:59:21.414Z,1.15
2023-02-26T04:01:53.936Z,1.42
2023-02-26T04:04:35.692Z,1.16
2023-02-26T04:07:02.496Z,1.15
2023-02-26T04:09:28.871Z,1.15
2023-02-26T04:11:56.867Z,1.03
2023-02-26T04:14:23.166Z,1.22
2023-02-26T04:16:49.538Z,1.20
2023-02-26T04:19:15.944Z,1.08
2023-02-26T04:21:42.286Z,1.15
2023-02-26T04:24:08.696Z,1.11
2023-02-26T04:26:35.087Z,1.31
2023-02-26T04:29:01.464Z,1.29
2023-02-26T04:31:27.830Z,1.43
2023-02-26T04:33:54.667Z,1.44
2023-02-26T04:36:21.059Z,1.09
2023-02-26T04:38:47.526Z,1.38
2023-02-26T04:41:13.910Z,1.13
2023-02-26T04:43:40.214Z,1.09
2023-02-26T04:46:06.569Z,1.18
2023-02-26T04:48:32.916Z,1.29
2023-02-26T04:50:59.558Z,1.33
2023-02-26T04:53:25.857Z,1.31
2023-02-26T04:55:52.575Z,1.30
2023-02-26T04:58:20.118Z,1.33
2023-02-26T05:00:50.318Z,1.27
2023-02-26T05:03:16.802Z,1.27
2023-02-26T05:05:43.475Z,1.31
2023-02-26T05:08:10.098Z,1.28
2023-02-26T05:10:36.510Z,1.11
2023-02-26T05:13:02.823Z,1.09
2023-02-26T05:15:29.124Z,1.33
2023-02-26T05:17:55.490Z,1.21
2023-02-26T05:20:21.949Z,1.41
2023-02-26T05:22:48.438Z,0.99
2023-02-26T05:25:14.772Z,1.05
2023-02-26T05:27:42.444Z,1.10
2023-02-26T05:30:09.546Z,0.99
2023-02-26T05:32:36.216Z,1.10
2023-02-26T05:35:02.485Z,1.24
2023-02-26T05:37:28.792Z,0.93
2023-02-26T05:39:55.075Z,1.02
2023-02-26T05:42:21.368Z,0.98
2023-02-26T05:44:47.648Z,0.90
2023-02-26T05:47:14.000Z,0.67
2023-02-26T05:49:40.310Z,0.75
2023-02-26T05:52:06.589Z,1.15
2023-02-26T05:54:32.896Z,1.21
2023-02-26T05:56:59.268Z,1.00
2023-02-26T05:59:25.804Z,1.15
2023-02-26T06:01:52.209Z,1.29
2023-02-26T06:04:18.526Z,1.01
2023-02-26T06:06:45.004Z,1.32
2023-02-26T06:09:11.534Z,1.24
2023-02-26T06:11:39.565Z,1.28
2023-02-26T06:14:06.207Z,1.23
2023-02-26T06:16:32.872Z,1.33
2023-02-26T06:18:59.338Z,1.19
2023-02-26T06:21:25.624Z,1.16
2023-02-26T06:23:51.912Z,1.10
2023-02-26T06:26:18.211Z,1.08
2023-02-26T06:28:44.889Z,0.89
2023-02-26T06:31:11.203Z,0.83
2023-02-26T06:33:37.493Z,0.75
2023-02-26T06:36:03.994Z,0.98
2023-02-26T06:38:30.298Z,0.70
2023-02-26T06:40:56.607Z,0.75
2023-02-26T06:43:22.939Z,0.94
2023-02-26T06:45:49.558Z,0.65
2023-02-26T06:48:16.291Z,0.69
2023-02-26T06:50:42.850Z,0.43
2023-02-26T06:53:09.186Z,0.55
2023-02-26T06:55:35.524Z,0.74
2023-02-26T06:58:01.905Z,0.75
2023-02-26T07:00:28.238Z,0.62
2023-02-26T07:02:54.539Z,0.67
2023-02-26T07:05:21.153Z,0.84
2023-02-26T07:07:47.914Z,0.84
2023-02-26T07:10:14.210Z,0.76
2023-02-26T07:12:40.589Z,0.75
2023-02-26T07:15:07.169Z,0.58
2023-02-26T07:17:33.467Z,0.65
2023-02-26T07:20:06.080Z,0.51
2023-02-26T07:22:33.291Z,0.78
2023-02-26T07:25:00.342Z,0.61
2023-02-26T07:27:26.698Z,0.56
2023-02-26T07:29:53.004Z,0.55
2023-02-26T07:32:19.368Z,0.62
2023-02-26T07:34:45.691Z,0.64
2023-02-26T07:37:12.079Z,0.54
2023-02-26T07:39:38.408Z,0.79
2023-02-26T07:42:05.144Z,0.87
2023-02-26T07:44:31.564Z,0.66
2023-02-26T07:46:57.833Z,0.89
2023-02-26T07:49:25.180Z,0.91
2023-02-26T07:51:51.520Z,0.93
2023-02-26T07:54:17.984Z,0.70
2023-02-26T07:56:44.765Z,0.49
2023-02-26T07:59:11.510Z,1.00
2023-02-26T08:01:38.064Z,0.51
2023-02-26T08:04:04.862Z,0.63
2023-02-26T08:06:31.229Z,0.81
2023-02-26T08:08:57.563Z,0.96
2023-02-26T08:11:23.931Z,0.80
2023-02-26T08:13:50.294Z,0.85
2023-02-26T08:16:16.594Z,0.66
2023-02-26T08:18:42.904Z,0.69
2023-02-26T08:21:09.239Z,1.13
2023-02-26T08:23:35.545Z,1.27
2023-02-26T08:26:06.121Z,1.33
2023-02-26T08:28:32.946Z,0.93
2023-02-26T08:31:00.081Z,1.06
2023-02-26T08:33:26.542Z,1.28
2023-02-26T08:35:53.651Z,1.17
2023-02-26T08:38:20.176Z,1.51
2023-02-26T08:40:49.260Z,1.38
2023-02-26T08:43:15.801Z,1.32
2023-02-26T08:45:42.110Z,1.28
2023-02-26T08:48:10.678Z,1.49
2023-02-26T08:50:37.278Z,1.69
2023-02-26T08:53:03.652Z,1.67
2023-02-26T08:55:30.397Z,1.51
2023-02-26T08:57:56.699Z,1.18
2023-02-26T09:00:23.074Z,1.69
2023-02-26T09:02:49.742Z,1.82
2023-02-26T09:05:16.501Z,1.85
2023-02-26T09:07:43.279Z,1.50
2023-02-26T09:10:10.441Z,1.31
2023-02-26T09:12:37.691Z,1.28
2023-02-26T09:15:04.733Z,1.07
2023-02-26T09:17:31.185Z,1.31
2023-02-26T09:19:57.725Z,1.33
2023-02-26T09:22:24.083Z,1.52
2023-02-26T09:24:50.774Z,1.52
2023-02-26T09:27:17.580Z,1.72
2023-02-26T09:29:43.932Z,1.76
2023-02-26T09:32:10.342Z,1.88
2023-02-26T09:34:37.595Z,1.98
2023-02-26T09:37:05.001Z,2.08
2023-02-26T09:39:31.527Z,1.98
2023-02-26T09:42:00.343Z,1.98
2023-02-26T09:44:28.356Z,1.64
2023-02-26T09:47:02.246Z,1.66
2023-02-26T09:49:28.548Z,1.62
2023-02-26T09:51:58.500Z,2.02
2023-02-26T09:54:26.955Z,1.87
2023-02-26T09:56:55.128Z,1.89
2023-02-26T09:59:21.496Z,1.85
2023-02-26T10:02:06.650Z,1.90
2023-02-26T10:04:35.820Z,2.12
2023-02-26T10:07:31.694Z,1.84
2023-02-26T10:10:10.183Z,1.99
2023-02-26T10:12:40.292Z,2.02
2023-02-26T10:15:07.398Z,2.12
2023-02-26T10:17:45.318Z,2.35
2023-02-26T10:20:15.970Z,2.08
2023-02-26T10:22:52.193Z,2.08
2023-02-26T10:25:23.427Z,2.32
2023-02-26T10:27:53.463Z,2.19
2023-02-26T10:30:43.956Z,2.29
2023-02-26T10:33:17.269Z,2.34
2023-02-26T10:35:54.180Z,2.40
2023-02-26T10:38:24.748Z,2.30
2023-02-26T10:40:55.383Z,2.20
2023-02-26T10:43:22.885Z,2.13
2023-02-26T10:46:07.823Z,2.06
2023-02-26T10:48:34.129Z,2.21
2023-02-26T10:51:01.539Z,2.08
2023-02-26T10:53:30.756Z,2.29
2023-02-26T10:56:16.045Z,2.31
2023-02-26T10:58:42.445Z,2.38
2023-02-26T11:01:16.016Z,2.20
2023-02-26T11:03:44.317Z,2.50
2023-02-26T11:06:11.942Z,2.70
2023-02-26T11:08:43.531Z,2.52
2023-02-26T11:11:09.914Z,2.62
2023-02-26T11:13:37.718Z,2.48
2023-02-26T11:16:13.170Z,2.57
2023-02-26T11:18:41.328Z,2.57
2023-02-26T11:21:08.767Z,2.74
2023-02-26T11:23:35.699Z,2.95
2023-02-26T11:26:13.945Z,2.98
2023-02-26T11:28:47.699Z,2.99
2023-02-26T11:31:17.415Z,2.68
2023-02-26T11:33:45.093Z,2.29
2023-02-26T11:36:14.133Z,2.34
2023-02-26T11:38:40.933Z,2.73
2023-02-26T11:41:07.562Z,2.63
2023-02-26T11:43:36.528Z,2.79
2023-02-26T11:46:03.345Z,2.83
2023-02-26T11:48:37.044Z,2.89
2023-02-26T11:51:04.821Z,2.92
2023-02-26T11:53:33.782Z,2.79
2023-02-26T11:56:01.871Z,2.52
2023-02-26T11:58:29.318Z,2.68
2023-02-26T12:00:58.549Z,2.50
2023-02-26T12:03:29.399Z,2.46
2023-02-26T12:05:57.267Z,2.48
2023-02-26T12:08:30.063Z,2.61
2023-02-26T12:11:08.281Z,3.00
2023-02-26T12:13:58.238Z,3.01
2023-02-26T12:16:27.673Z,3.04
2023-02-26T12:19:01.784Z,3.01
2023-02-26T12:21:54.292Z,3.06
2023-02-26T12:24:23.352Z,2.70
2023-02-26T12:27:03.531Z,2.41
2023-02-26T12:29:47.766Z,2.57
2023-02-26T12:32:23.400Z,2.48
2023-02-26T12:34:55.784Z,2.92
2023-02-26T12:37:40.902Z,2.97
2023-02-26T12:40:30.719Z,2.72
2023-02-26T12:43:06.982Z,2.86
2023-02-26T12:45:47.676Z,2.53
2023-02-26T12:48:13.939Z,2.62
2023-02-26T12:50:55.514Z,2.36
2023-02-26T12:53:40.551Z,2.68
2023-02-26T12:56:12.972Z,2.64
2023-02-26T12:58:42.261Z,2.62
2023-02-26T13:01:11.745Z,3.03
2023-02-26T13:03:44.998Z,2.79
2023-02-26T13:06:32.598Z,2.72
2023-02-26T13:08:58.958Z,2.55
2023-02-26T13:11:25.664Z,2.57
2023-02-26T13:13:59.888Z,2.59
2023-02-26T13:16:39.183Z,3.05
2023-02-26T13:19:13.348Z,3.23
2023-02-26T13:21:43.505Z,3.22
2023-02-26T13:24:21.679Z,3.37
2023-02-26T13:26:48.901Z,3.36
2023-02-26T13:29:17.371Z,3.46
2023-02-26T13:31:48.517Z,3.44
2023-02-26T13:34:21.757Z,3.20
2023-02-26T13:36:48.783Z,3.05
2023-02-26T13:39:24.767Z,3.25
2023-02-26T13:42:11.336Z,3.40
2023-02-26T13:44:52.560Z,2.99
2023-02-26T13:47:18.879Z,3.19
2023-02-26T13:49:49.013Z,3.42
2023-02-26T13:52:28.868Z,3.61
2023-02-26T13:54:55.712Z,3.53
2023-02-26T13:57:25.838Z,3.43
2023-02-26T13:59:54.366Z,3.64
2023-02-26T14:02:20.650Z,3.42
2023-02-26T14:04:51.617Z,3.44
2023-02-26T14:07:37.857Z,3.47
2023-02-26T14:10:14.594Z,3.61
2023-02-26T14:12:44.326Z,3.54
2023-02-26T14:15:13.698Z,3.72
2023-02-26T14:17:41.603Z,3.60
2023-02-26T14:20:17.022Z,3.52
2023-02-26T14:22:46.716Z,3.43
2023-02-26T14:25:12.976Z,3.02
2023-02-26T14:27:40.770Z,3.08
2023-02-26T14:30:10.069Z,3.08
2023-02-26T14:32:56.150Z,2.96
2023-02-26T14:35:28.073Z,3.16
2023-02-26T14:38:06.168Z,3.58
2023-02-26T14:40:37.196Z,3.47
2023-02-26T14:43:05.176Z,3.00
2023-02-26T14:45:35.036Z,3.15
2023-02-26T14:48:03.593Z,3.14
2023-02-26T14:50:37.004Z,3.04
2023-02-26T14:53:06.412Z,2.93
2023-02-26T14:55:59.076Z,3.07
2023-02-26T14:58:28.392Z,3.27
2023-02-26T15:00:57.860Z,3.19
2023-02-26T15:03:27.267Z,3.14
2023-02-26T15:05:53.548Z,3.52
2023-02-26T15:08:25.917Z,3.17
2023-02-26T15:10:52.272Z,3.51
2023-02-26T15:13:21.559Z,3.33
2023-02-26T15:16:06.806Z,3.33
2023-02-26T15:18:36.111Z,3.20
2023-02-26T15:21:05.408Z,3.12
2023-02-26T15:23:37.852Z,3.38
2023-02-26T15:26:05.340Z,3.15
2023-02-26T15:28:36.729Z,2.76
2023-02-26T15:31:06.119Z,2.98
2023-02-26T15:33:33.283Z,3.14
2023-02-26T15:36:00.605Z,3.36
2023-02-26T15:38:27.117Z,3.23
2023-02-26T15:40:54.729Z,3.42
2023-02-26T15:43:23.830Z,3.39
2023-02-26T15:45:52.284Z,3.41
2023-02-26T15:48:25.694Z,3.31
2023-02-26T15:50:58.832Z,3.13
2023-02-26T15:53:32.918Z,3.33
2023-02-26T15:56:01.683Z,2.96
2023-02-26T15:58:34.847Z,3.00
2023-02-26T16:01:02.116Z,2.87
2023-02-26T16:03:30.480Z,2.91
2023-02-26T16:05:58.121Z,2.84
2023-02-26T16:08:24.582Z,2.84
2023-02-26T16:10:52.041Z,3.15
2023-02-26T16:13:24.335Z,2.88
2023-02-26T16:15:50.824Z,3.27
2023-02-26T16:18:22.805Z,2.62
2023-02-26T16:20:52.364Z,2.66
2023-02-26T16:23:23.352Z,2.58
2023-02-26T16:26:00.743Z,2.84
2023-02-26T16:28:30.787Z,2.30
2023-02-26T16:30:59.333Z,2.12
2023-02-26T16:33:26.528Z,2.23
2023-02-26T16:35:54.647Z,2.22
2023-02-26T16:38:22.376Z,2.24
2023-02-26T16:40:56.385Z,2.00
2023-02-26T16:43:23.296Z,2.07
2023-02-26T16:45:50.834Z,2.01
2023-02-26T16:48:27.382Z,2.13
2023-02-26T16:50:57.097Z,2.04
2023-02-26T16:53:25.091Z,1.94
2023-02-26T16:55:53.589Z,2.12
2023-02-26T16:58:21.873Z,2.03
2023-02-26T17:00:51.094Z,2.26
2023-02-26T17:03:20.038Z,2.12
2023-02-26T17:06:01.934Z,2.09
2023-02-26T17:08:32.190Z,2.29
2023-02-26T17:11:01.842Z,2.10
2023-02-26T17:13:29.586Z,2.35
2023-02-26T17:15:59.219Z,2.45
2023-02-26T17:18:25.811Z,2.26
2023-02-26T17:20:52.461Z,2.29
2023-02-26T17:23:19.493Z,2.20
2023-02-26T17:25:47.380Z,2.07
2023-02-26T17:28:17.434Z,1.86
2023-02-26T17:30:43.821Z,1.83
2023-02-26T17:33:12.772Z,1.66
2023-02-26T17:35:39.608Z,1.55
2023-02-26T17:38:06.384Z,1.39
2023-02-26T17:40:36.539Z,1.06
2023-02-26T17:43:04.613Z,1.13
2023-02-26T17:45:32.421Z,0.98
2023-02-26T17:47:58.791Z,1.06
2023-02-26T17:50:40.381Z,0.97
2023-02-26T17:53:07.651Z,0.86
2023-02-26T17:55:35.741Z,0.58
2023-02-26T17:58:02.057Z,0.70
2023-02-26T18:00:28.683Z,0.54
2023-02-26T18:02:55.038Z,0.53
2023-02-26T18:05:21.502Z,0.80
2023-02-26T18:07:48.704Z,0.67
2023-02-26T18:10:21.365Z,0.71
2023-02-26T18:12:48.736Z,0.78
2023-02-26T18:15:16.000Z,0.46
2023-02-26T18:17:43.111Z,0.72
2023-02-26T18:20:15.770Z,0.86
2023-02-26T18:22:42.081Z,0.81
2023-02-26T18:25:09.454Z,0.84
2023-02-26T18:27:35.845Z,0.74
2023-02-26T18:30:04.359Z,0.98
2023-02-26T18:32:30.790Z,0.72
2023-02-26T18:34:57.178Z,0.66
2023-02-26T18:37:27.118Z,0.55
2023-02-26T18:39:53.782Z,0.48
2023-02-26T18:42:20.162Z,0.51
2023-02-26T18:44:46.746Z,0.51
2023-02-26T18:47:13.227Z,0.71
2023-02-26T18:49:39.528Z,0.37
2023-02-26T18:52:05.878Z,0.51
2023-02-26T18:54:32.202Z,0.45
2023-02-26T18:56:58.801Z,0.36
2023-02-26T18:59:25.224Z,0.32
2023-02-26T19:01:51.715Z,0.26
2023-02-26T19:04:18.046Z,0.27
2023-02-26T19:06:44.398Z,0.28
2023-02-26T19:09:10.792Z,0.31
2023-02-26T19:11:38.120Z,0.09
2023-02-26T19:14:04.936Z,0.00
2023-02-26T19:16:35.163Z,-0.02
2023-02-26T19:19:01.906Z,-0.01
2023-02-26T19:21:28.422Z,-0.04
2023-02-26T19:23:54.840Z,-0.05
2023-02-26T19:26:22.734Z,-0.01
2023-02-26T19:28:49.051Z,-0.10
2023-02-26T19:31:16.773Z,-0.10
2023-02-26T19:33:43.322Z,-0.21
2023-02-26T19:36:09.839Z,-0.22
2023-02-26T19:38:36.173Z,-0.27
2023-02-26T19:41:02.530Z,-0.29
2023-02-26T19:43:29.145Z,-0.34
2023-02-26T19:45:56.100Z,-0.50
2023-02-26T19:48:22.752Z,-0.43
2023-02-26T19:50:52.354Z,-0.50
2023-02-26T19:53:19.438Z,-0.44
2023-02-26T19:55:45.799Z,-0.38
2023-02-26T19:58:14.045Z,-0.30
2023-02-26T20:00:40.485Z,-0.51
2023-02-26T20:03:07.060Z,-0.39
2023-02-26T20:05:34.900Z,-0.33
2023-02-26T20:08:01.752Z,-0.38
2023-02-26T20:10:29.134Z,-0.55
2023-02-26T20:12:58.079Z,-0.49
2023-02-26T20:15:24.764Z,-0.42
2023-02-26T20:17:51.098Z,-0.37
2023-02-26T20:20:17.642Z,-0.37
2023-02-26T20:22:43.991Z,-0.20
2023-02-26T20:25:10.357Z,-0.49
2023-02-26T20:27:36.673Z,-0.31
2023-02-26T20:30:03.867Z,-0.43
2023-02-26T20:32:30.319Z,-0.38
2023-02-26T20:34:56.799Z,-0.34
2023-02-26T20:37:23.104Z,-0.25
2023-02-26T20:39:49.429Z,-0.13
2023-02-26T20:42:16.859Z,0.00
2023-02-26T20:44:43.185Z,0.02
2023-02-26T20:47:09.722Z,0.17
2023-02-26T20:49:36.023Z,0.12
2023-02-26T20:52:02.438Z,0.25
2023-02-26T20:54:28.800Z,0.30
2023-02-26T20:56:55.223Z,0.31
2023-02-26T20:59:21.653Z,0.36
2023-02-26T21:01:48.260Z,0.38
2023-02-26T21:04:14.735Z,0.37
2023-02-26T21:06:41.284Z,0.34
2023-02-26T21:09:10.874Z,0.49
2023-02-26T21:11:38.320Z,0.41
2023-02-26T21:14:05.739Z,0.28
2023-02-26T21:16:32.291Z,0.35
2023-02-26T21:19:00.259Z,0.47
2023-02-26T21:21:26.658Z,0.51
2023-02-26T21:23:53.215Z,0.52
2023-02-26T21:26:20.310Z,0.27
2023-02-26T21:28:48.298Z,0.42
2023-02-26T21:31:15.404Z,0.46
2023-02-26T21:33:41.756Z,0.41
2023-02-26T21:36:08.937Z,0.24
2023-02-26T21:38:35.337Z,0.07
2023-02-26T21:41:01.633Z,0.05
2023-02-26T21:43:27.954Z,0.13
2023-02-26T21:45:54.325Z,0.22
2023-02-26T21:48:20.825Z,0.08
2023-02-26T21:50:48.020Z,-0.20
2023-02-26T21:53:14.315Z,-0.23
2023-02-26T21:55:40.788Z,-0.27
2023-02-26T21:58:07.106Z,-0.30
2023-02-26T22:00:33.517Z,-0.34
2023-02-26T22:02:59.969Z,-0.41
2023-02-26T22:05:26.339Z,-0.56
2023-02-26T22:07:52.874Z,-0.61
2023-02-26T22:10:19.286Z,-0.71
2023-02-26T22:12:45.688Z,-0.81
2023-02-26T22:15:12.165Z,-0.87
2023-02-26T22:17:38.472Z,-0.83
2023-02-26T22:20:09.613Z,-1.13
2023-02-26T22:22:37.096Z,-1.19
2023-02-26T22:25:05.556Z,-1.29
2023-02-26T22:27:32.354Z,-1.35
2023-02-26T22:29:58.772Z,-1.34
2023-02-26T22:32:25.653Z,-1.43
2023-02-26T22:34:52.308Z,-1.68
2023-02-26T22:37:19.078Z,-1.71
2023-02-26T22:39:45.467Z,-1.35
2023-02-26T22:42:11.911Z,-1.37
2023-02-26T22:44:38.348Z,-1.63
2023-02-26T22:47:04.758Z,-1.52
2023-02-26T22:49:31.132Z,-1.81
2023-02-26T22:51:57.476Z,-1.92
2023-02-26T22:54:23.894Z,-1.83
2023-02-26T22:56:50.367Z,-1.83
2023-02-26T22:59:16.665Z,-1.78
2023-02-26T23:01:43.392Z,-1.62
2023-02-26T23:04:10.805Z,-1.94
2023-02-26T23:06:37.262Z,-1.82
2023-02-26T23:09:05.003Z,-1.75
2023-02-26T23:11:31.788Z,-1.83
2023-02-26T23:13:58.102Z,-1.73
2023-02-26T23:16:24.423Z,-1.86
2023-02-26T23:18:50.783Z,-1.99
2023-02-26T23:21:17.196Z,-2.10
2023-02-26T23:23:43.962Z,-1.82
2023-02-26T23:26:10.442Z,-1.86
2023-02-26T23:28:36.840Z,-1.96
2023-02-26T23:31:05.311Z,-1.92
2023-02-26T23:33:31.874Z,-2.23
2023-02-26T23:35:58.168Z,-2.15
2023-02-26T23:38:24.476Z,-2.19
2023-02-26T23:40:50.904Z,-2.17
2023-02-26T23:43:17.184Z,-2.10
2023-02-26T23:45:44.058Z,-2.13
2023-02-26T23:48:10.419Z,-2.29
2023-02-26T23:50:36.782Z,-2.28
2023-02-26T23:53:03.101Z,-1.98
2023-02-26T23:55:29.391Z,-2.12
2023-02-26T23:57:55.777Z,-2.17
